Time;durP1;ratioP1;P1;durP2;ratioP2;P2;SDS_P1;SDS_P2;PMS_P1;PMS_P2;Temp;Humidity;BMP_temperature;BMP_pressure;BME280_temperature;BME280_humidity;BME280_pressure;Samples;Min_cycle;Max_cycle;Signal;HPM_P1;HPM_P2
2023/06/21 00:02:22;;;;;;;0.00;0.00;;;21.70;99.90;;;;;;5069846;28;20179;-69
2023/06/21 00:04:48;;;;;;;0.00;0.00;;;21.60;99.90;;;;;;5070858;28;20189;-69
2023/06/21 00:07:13;;;;;;;0.00;0.00;;;21.60;99.90;;;;;;5070746;28;20230;-69
2023/06/21 00:09:39;;;;;;;0.00;0.00;;;21.60;99.90;;;;;;5070757;28;20184;-68
2023/06/21 00:12:05;;;;;;;0.00;0.00;;;21.50;99.90;;;;;;5069597;28;20219;-69
2023/06/21 00:14:31;;;;;;;0.00;0.00;;;21.50;99.90;;;;;;5070154;28;20537;-69
2023/06/21 00:16:56;;;;;;;0.00;0.00;;;21.50;99.90;;;;;;5060381;28;20190;-69
2023/06/21 00:19:21;;;;;;;0.00;0.00;;;21.50;99.90;;;;;;5069300;28;20223;-69
2023/06/21 00:21:47;;;;;;;0.00;0.00;;;21.50;99.90;;;;;;5070342;28;20181;-69
2023/06/21 00:24:13;;;;;;;0.00;0.00;;;21.40;99.90;;;;;;5070798;28;20704;-68
2023/06/21 00:26:38;;;;;;;0.00;0.00;;;21.40;99.90;;;;;;5070170;28;20670;-69
2023/06/21 00:29:04;;;;;;;0.00;0.00;;;21.40;99.90;;;;;;5070386;28;20497;-68
2023/06/21 00:31:30;;;;;;;0.00;0.00;;;21.50;99.90;;;;;;5069701;28;20299;-68
2023/06/21 00:33:56;;;;;;;0.10;0.10;;;21.40;99.90;;;;;;5070312;28;20628;-68
2023/06/21 00:36:21;;;;;;;0.00;0.00;;;21.40;99.90;;;;;;5070449;28;20211;-70
2023/06/21 00:38:47;;;;;;;0.00;0.00;;;21.40;99.90;;;;;;5070113;28;20220;-69
2023/06/21 00:41:12;;;;;;;0.10;0.10;;;21.30;99.90;;;;;;5069645;28;20172;-69
2023/06/21 00:43:38;;;;;;;0.00;0.00;;;21.30;99.90;;;;;;5070047;28;20905;-69
2023/06/21 00:46:04;;;;;;;0.00;0.00;;;21.30;99.90;;;;;;5069339;28;20173;-69
2023/06/21 00:48:29;;;;;;;0.00;0.00;;;21.30;99.90;;;;;;5068199;28;20233;-69
2023/06/21 00:50:56;;;;;;;0.00;0.00;;;21.30;99.90;;;;;;5069671;28;20211;-69
2023/06/21 00:53:23;;;;;;;0.00;0.00;;;21.30;99.90;;;;;;5068760;28;20192;-69
2023/06/21 00:55:49;;;;;;;0.00;0.00;;;21.30;99.90;;;;;;5069879;28;20173;-69
2023/06/21 00:58:15;;;;;;;0.00;0.00;;;21.20;99.90;;;;;;5073990;28;20184;-69
2023/06/21 01:00:41;;;;;;;0.00;0.00;;;21.20;99.90;;;;;;5074030;28;20181;-69
2023/06/21 01:03:07;;;;;;;0.00;0.00;;;21.20;99.90;;;;;;5074103;28;20240;-69
2023/06/21 01:05:34;;;;;;;0.00;0.00;;;21.10;99.90;;;;;;5074252;28;20180;-69
2023/06/21 01:08:11;;;;;;;0.15;0.15;;;21.00;99.90;;;;;;5072287;28;20701;-69
2023/06/21 01:10:43;;;;;;;0.43;0.43;;;20.90;99.90;;;;;;5073909;28;20623;-70
2023/06/21 01:13:35;;;;;;;0.00;0.00;;;20.90;99.90;;;;;;5074215;28;20180;-69
2023/06/21 01:16:07;;;;;;;0.00;0.00;;;20.90;99.90;;;;;;5073797;28;20269;-69
2023/06/21 01:18:34;;;;;;;0.00;0.00;;;20.90;99.90;;;;;;5073935;28;20275;-69
2023/06/21 01:21:03;;;;;;;0.00;0.00;;;20.90;99.90;;;;;;5074157;28;20168;-69
2023/06/21 01:24:13;;;;;;;0.00;0.00;;;20.90;99.90;;;;;;5073893;28;20703;-68
2023/06/21 01:27:16;;;;;;;0.00;0.00;;;20.90;99.90;;;;;;5051556;28;20538;-69
2023/06/21 01:29:45;;;;;;;0.00;0.00;;;20.90;99.90;;;;;;5053743;28;20208;-69
2023/06/21 01:32:13;;;;;;;0.00;0.00;;;20.90;99.90;;;;;;5069518;28;20266;-69
2023/06/21 01:34:38;;;;;;;0.32;0.32;;;20.90;99.90;;;;;;5073028;28;20624;-69
2023/06/21 01:37:06;;;;;;;0.00;0.00;;;20.90;99.90;;;;;;5072224;28;20184;-69
2023/06/21 01:39:32;;;;;;;0.00;0.00;;;21.00;99.90;;;;;;5073348;28;20711;-69
2023/06/21 01:41:58;;;;;;;0.00;0.00;;;20.90;99.90;;;;;;5073706;28;20260;-68
2023/06/21 01:44:25;;;;;;;0.00;0.00;;;20.90;99.90;;;;;;5073221;28;20185;-69
2023/06/21 01:46:52;;;;;;;0.00;0.00;;;20.90;99.90;;;;;;5073009;28;20215;-69
2023/06/21 01:49:18;;;;;;;0.08;0.08;;;21.00;99.90;;;;;;5073209;28;20173;-69
2023/06/21 01:51:45;;;;;;;0.00;0.00;;;21.00;99.90;;;;;;5072764;28;20241;-69
2023/06/21 01:54:13;;;;;;;0.00;0.00;;;21.00;99.90;;;;;;5072945;28;20303;-69
2023/06/21 01:56:41;;;;;;;0.00;0.00;;;21.00;99.90;;;;;;5072393;28;20322;-68
2023/06/21 01:59:08;;;;;;;0.03;0.03;;;20.90;99.90;;;;;;5072274;28;20330;-69
2023/06/21 02:01:34;;;;;;;0.00;0.00;;;20.90;99.90;;;;;;5072329;28;20188;-69
2023/06/21 02:04:01;;;;;;;0.03;0.03;;;20.90;99.90;;;;;;5072718;28;20189;-69
2023/06/21 02:06:32;;;;;;;0.00;0.00;;;20.80;99.90;;;;;;5071155;28;20572;-69
2023/06/21 02:09:05;;;;;;;0.00;0.00;;;20.70;99.90;;;;;;5071120;28;20205;-69
2023/06/21 02:11:31;;;;;;;0.00;0.00;;;20.70;99.90;;;;;;5072057;28;20212;-69
2023/06/21 02:13:57;;;;;;;0.00;0.00;;;20.70;99.90;;;;;;5072147;28;20900;-69
2023/06/21 02:16:28;;;;;;;0.00;0.00;;;20.70;99.90;;;;;;5072733;28;20191;-69
2023/06/21 02:18:53;;;;;;;0.00;0.00;;;20.70;99.90;;;;;;5071953;28;20182;-69
2023/06/21 02:21:20;;;;;;;0.25;0.25;;;20.60;99.90;;;;;;5071486;28;20261;-69
2023/06/21 02:23:45;;;;;;;0.10;0.10;;;20.60;99.90;;;;;;5072854;28;20176;-70
2023/06/21 02:26:11;;;;;;;0.00;0.00;;;20.60;99.90;;;;;;5072493;28;20181;-69
2023/06/21 02:28:37;;;;;;;0.08;0.08;;;20.50;99.90;;;;;;5072290;28;20225;-69
2023/06/21 02:31:02;;;;;;;0.00;0.00;;;20.40;99.90;;;;;;5072173;28;20217;-69
2023/06/21 02:33:28;;;;;;;0.00;0.00;;;20.30;99.90;;;;;;5071983;28;20180;-68
2023/06/21 02:35:55;;;;;;;0.00;0.00;;;20.20;99.90;;;;;;5071232;28;20185;-69
2023/06/21 02:38:20;;;;;;;0.00;0.00;;;20.20;99.90;;;;;;5072071;28;20183;-69
2023/06/21 02:40:46;;;;;;;0.00;0.00;;;20.20;99.90;;;;;;5072204;28;20264;-69
2023/06/21 02:43:11;;;;;;;0.00;0.00;;;20.20;99.90;;;;;;5071979;28;20218;-69
2023/06/21 02:45:37;;;;;;;0.10;0.10;;;20.10;99.90;;;;;;5071483;28;20250;-69
2023/06/21 02:48:04;;;;;;;0.00;0.00;;;20.10;99.90;;;;;;5072097;28;20674;-70
2023/06/21 02:50:30;;;;;;;0.63;0.63;;;20.10;99.90;;;;;;5072194;28;20540;-69
2023/06/21 02:52:55;;;;;;;0.10;0.10;;;20.10;99.90;;;;;;5067070;28;20180;-69
2023/06/21 02:55:21;;;;;;;0.00;0.00;;;20.10;99.90;;;;;;5071742;28;20877;-69
2023/06/21 02:57:46;;;;;;;0.00;0.00;;;20.10;99.90;;;;;;5071854;28;20753;-69
2023/06/21 03:00:22;;;;;;;0.10;0.10;;;20.10;99.90;;;;;;5071832;28;20199;-69
2023/06/21 03:02:49;;;;;;;0.00;0.00;;;20.10;99.90;;;;;;5071923;28;20255;-69
2023/06/21 03:05:15;;;;;;;0.13;0.13;;;20.00;99.90;;;;;;5071499;28;20177;-69
2023/06/21 03:07:46;;;;;;;0.47;0.15;;;19.90;99.90;;;;;;5071578;28;20192;-69
2023/06/21 03:10:13;;;;;;;0.20;0.20;;;20.00;99.90;;;;;;5072087;28;20228;-68
2023/06/21 03:12:43;;;;;;;0.00;0.00;;;20.10;99.90;;;;;;5071418;28;20193;-68
2023/06/21 03:15:10;;;;;;;0.00;0.00;;;20.20;99.90;;;;;;5071925;28;20525;-69
2023/06/21 03:17:36;;;;;;;0.00;0.00;;;20.20;99.90;;;;;;5071861;28;20185;-68
2023/06/21 03:20:08;;;;;;;0.00;0.00;;;20.30;99.90;;;;;;5071278;28;20616;-69
2023/06/21 03:22:34;;;;;;;0.00;0.00;;;20.40;99.90;;;;;;5073027;28;20168;-68
2023/06/21 03:24:59;;;;;;;0.00;0.00;;;20.50;99.90;;;;;;5071619;28;20188;-68
2023/06/21 03:27:25;;;;;;;0.00;0.00;;;20.60;99.90;;;;;;5071349;28;20221;-69
2023/06/21 03:29:50;;;;;;;0.10;0.10;;;20.60;99.90;;;;;;5080280;28;20184;-70
2023/06/21 03:32:16;;;;;;;0.00;0.00;;;20.70;99.90;;;;;;5091728;28;20727;-71
2023/06/21 03:34:41;;;;;;;0.08;0.08;;;20.70;99.90;;;;;;5079808;28;20184;-69
2023/06/21 03:37:07;;;;;;;0.00;0.00;;;20.80;99.90;;;;;;5070797;28;20188;-70
2023/06/21 03:39:33;;;;;;;0.00;0.00;;;20.90;99.90;;;;;;5061265;28;20185;-69
2023/06/21 03:41:58;;;;;;;0.00;0.00;;;20.80;99.90;;;;;;5064523;28;20181;-69
2023/06/21 03:44:24;;;;;;;0.00;0.00;;;20.60;99.90;;;;;;5055312;28;20208;-69
2023/06/21 03:46:49;;;;;;;0.28;0.28;;;20.60;99.90;;;;;;5070479;28;20227;-69
2023/06/21 03:49:15;;;;;;;0.00;0.00;;;20.60;99.90;;;;;;5070449;28;20686;-70
2023/06/21 03:51:40;;;;;;;0.13;0.13;;;20.60;99.90;;;;;;5070126;28;20212;-71
2023/06/21 03:54:06;;;;;;;0.00;0.00;;;20.60;99.90;;;;;;5071094;28;20181;-69
2023/06/21 03:56:32;;;;;;;0.00;0.00;;;20.50;99.90;;;;;;5070999;28;20176;-69
2023/06/21 03:58:58;;;;;;;0.00;0.00;;;20.50;99.90;;;;;;5069693;28;20196;-69
2023/06/21 04:01:23;;;;;;;0.00;0.00;;;20.40;99.90;;;;;;5070496;28;20173;-70
2023/06/21 04:03:49;;;;;;;0.00;0.00;;;20.30;99.90;;;;;;5071395;28;20199;-67
2023/06/21 04:06:14;;;;;;;0.00;0.00;;;20.40;99.90;;;;;;5071202;28;20176;-67
2023/06/21 04:08:40;;;;;;;0.03;0.03;;;20.40;99.90;;;;;;5069874;28;20203;-68
2023/06/21 04:11:05;;;;;;;0.00;0.00;;;20.50;99.90;;;;;;5071193;28;20232;-67
2023/06/21 04:13:31;;;;;;;0.00;0.00;;;20.50;99.90;;;;;;5071105;28;20184;-68
2023/06/21 04:15:56;;;;;;;0.00;0.00;;;20.50;99.90;;;;;;5070312;28;20187;-70
2023/06/21 04:18:22;;;;;;;0.00;0.00;;;20.60;99.90;;;;;;5069116;28;20736;-71
2023/06/21 04:20:49;;;;;;;0.28;0.28;;;20.60;99.90;;;;;;5069869;28;20216;-71
2023/06/21 04:23:15;;;;;;;0.00;0.00;;;20.60;99.90;;;;;;5070508;28;20173;-71
2023/06/21 04:25:41;;;;;;;0.00;0.00;;;20.50;99.90;;;;;;5070309;28;20173;-71
2023/06/21 04:28:06;;;;;;;0.10;0.10;;;20.50;99.90;;;;;;5070749;28;20224;-72
2023/06/21 04:30:34;;;;;;;0.10;0.08;;;20.50;99.90;;;;;;5070423;28;20201;-71
2023/06/21 04:33:00;;;;;;;0.00;0.00;;;20.50;99.90;;;;;;5074150;28;20177;-72
2023/06/21 04:35:25;;;;;;;0.00;0.00;;;20.60;99.90;;;;;;5074811;28;20532;-72
2023/06/21 04:37:51;;;;;;;0.10;0.10;;;20.60;99.90;;;;;;5074582;28;20268;-72
2023/06/21 04:40:18;;;;;;;0.00;0.00;;;20.70;99.90;;;;;;5074835;28;20172;-72
2023/06/21 04:42:45;;;;;;;0.10;0.10;;;20.70;99.90;;;;;;5072608;28;20533;-71
2023/06/21 04:45:15;;;;;;;0.00;0.00;;;20.70;99.90;;;;;;5054673;28;20165;-71
2023/06/21 04:47:46;;;;;;;0.00;0.00;;;20.80;99.90;;;;;;5054581;28;20697;-72
2023/06/21 04:50:12;;;;;;;0.05;0.05;;;20.70;99.90;;;;;;5054594;28;20621;-72
2023/06/21 04:52:38;;;;;;;0.00;0.00;;;20.50;99.90;;;;;;5054632;28;20217;-72
2023/06/21 04:55:05;;;;;;;0.05;0.05;;;20.40;99.90;;;;;;5054480;28;20660;-72
2023/06/21 04:57:31;;;;;;;0.15;0.15;;;20.20;99.90;;;;;;5054238;28;20205;-71
2023/06/21 04:59:56;;;;;;;0.00;0.00;;;20.10;99.90;;;;;;5054087;28;20185;-72
2023/06/21 05:02:22;;;;;;;0.10;0.10;;;20.00;99.90;;;;;;5054362;28;20181;-72
2023/06/21 05:04:48;;;;;;;0.00;0.00;;;20.00;99.90;;;;;;5054161;28;20185;-72
2023/06/21 05:07:13;;;;;;;0.00;0.00;;;19.90;99.90;;;;;;5054175;28;20641;-72
2023/06/21 05:09:39;;;;;;;1.40;1.08;;;19.90;99.90;;;;;;5054093;28;20256;-72
2023/06/21 05:12:08;;;;;;;2.00;1.40;;;19.90;99.90;;;;;;5054217;28;20213;-73
2023/06/21 05:14:34;;;;;;;0.00;0.00;;;19.90;99.90;;;;;;5054084;28;20176;-71
2023/06/21 05:16:59;;;;;;;0.00;0.00;;;20.00;99.90;;;;;;5054159;28;20177;-72
2023/06/21 05:19:25;;;;;;;0.00;0.00;;;19.90;99.90;;;;;;5068399;28;20177;-71
2023/06/21 05:21:50;;;;;;;0.13;0.13;;;19.90;99.90;;;;;;5073852;28;20181;-71
2023/06/21 05:24:16;;;;;;;0.63;0.63;;;19.90;99.90;;;;;;5073751;28;20672;-72
2023/06/21 05:26:44;;;;;;;0.00;0.00;;;19.90;99.90;;;;;;5073686;28;20220;-72
2023/06/21 05:29:11;;;;;;;0.00;0.00;;;19.80;99.90;;;;;;5073810;28;20177;-72
2023/06/21 05:31:37;;;;;;;0.00;0.00;;;19.80;99.90;;;;;;5073678;28;20208;-72
2023/06/21 05:34:02;;;;;;;0.10;0.10;;;19.80;99.90;;;;;;5072579;28;20168;-72
2023/06/21 05:36:27;;;;;;;0.45;0.45;;;19.80;99.90;;;;;;5073716;28;20275;-70
2023/06/21 05:38:53;;;;;;;0.00;0.00;;;19.80;99.90;;;;;;5073670;28;20177;-72
2023/06/21 05:41:18;;;;;;;0.00;0.00;;;19.80;99.90;;;;;;5073736;28;20193;-72
2023/06/21 05:43:44;;;;;;;0.00;0.00;;;19.80;99.90;;;;;;5072929;28;20181;-72
2023/06/21 05:46:10;;;;;;;0.00;0.00;;;19.80;99.90;;;;;;5073574;28;20263;-71
2023/06/21 05:48:36;;;;;;;0.00;0.00;;;19.80;99.90;;;;;;5073454;28;20161;-71
2023/06/21 05:51:02;;;;;;;0.00;0.00;;;19.90;99.90;;;;;;5073539;28;20216;-71
2023/06/21 05:53:27;;;;;;;0.00;0.00;;;19.90;99.90;;;;;;5073376;28;20173;-71
2023/06/21 05:55:54;;;;;;;0.00;0.00;;;20.00;99.90;;;;;;5073533;28;20590;-71
2023/06/21 05:58:20;;;;;;;0.00;0.00;;;20.00;99.90;;;;;;5073386;28;20206;-71
2023/06/21 06:00:46;;;;;;;0.00;0.00;;;20.10;99.90;;;;;;5073479;28;20203;-71
2023/06/21 06:03:12;;;;;;;0.00;0.00;;;20.20;99.90;;;;;;5073093;28;20205;-71
2023/06/21 06:05:37;;;;;;;0.00;0.00;;;20.30;99.90;;;;;;5073188;28;20169;-70
2023/06/21 06:08:03;;;;;;;0.08;0.08;;;20.50;99.90;;;;;;5073211;28;20185;-71
2023/06/21 06:10:29;;;;;;;0.00;0.00;;;20.70;99.90;;;;;;5072966;28;20165;-70
2023/06/21 06:12:54;;;;;;;0.00;0.00;;;20.80;99.90;;;;;;5073049;28;20267;-71
2023/06/21 06:15:20;;;;;;;0.00;0.00;;;21.10;99.90;;;;;;5073108;28;20184;-70
2023/06/21 06:17:46;;;;;;;0.00;0.00;;;21.30;99.90;;;;;;5072890;28;20200;-70
2023/06/21 06:20:12;;;;;;;0.00;0.00;;;21.40;99.90;;;;;;5072966;28;20512;-70
2023/06/21 06:22:39;;;;;;;0.00;0.00;;;21.40;99.90;;;;;;5072716;28;20675;-70
2023/06/21 06:25:05;;;;;;;0.00;0.00;;;21.50;99.90;;;;;;5072902;28;20202;-70
2023/06/21 06:27:31;;;;;;;0.00;0.00;;;21.50;99.90;;;;;;5071096;28;20240;-70
2023/06/21 06:29:56;;;;;;;0.00;0.00;;;21.50;99.90;;;;;;5072921;28;20176;-70
2023/06/21 06:32:22;;;;;;;0.00;0.00;;;21.50;99.90;;;;;;5072698;28;20303;-70
2023/06/21 06:34:48;;;;;;;0.00;0.00;;;21.60;99.90;;;;;;5072791;28;20168;-70
2023/06/21 06:37:13;;;;;;;0.00;0.00;;;21.50;99.90;;;;;;5072973;28;20181;-70
2023/06/21 06:39:39;;;;;;;0.00;0.00;;;21.50;99.90;;;;;;5072905;28;20169;-70
2023/06/21 06:42:06;;;;;;;0.00;0.00;;;21.40;99.90;;;;;;5072908;28;20173;-71
2023/06/21 06:44:32;;;;;;;0.00;0.00;;;21.20;99.90;;;;;;5072769;28;20580;-70
2023/06/21 06:46:57;;;;;;;0.00;0.00;;;21.20;99.90;;;;;;5072943;28;20173;-70
2023/06/21 06:49:23;;;;;;;0.10;0.10;;;21.20;99.90;;;;;;5072788;28;20176;-70
2023/06/21 06:51:48;;;;;;;0.00;0.00;;;21.20;99.90;;;;;;5072855;28;20212;-71
2023/06/21 06:54:14;;;;;;;0.00;0.00;;;21.40;99.90;;;;;;5072052;28;20173;-70
2023/06/21 06:56:39;;;;;;;0.00;0.00;;;21.50;99.90;;;;;;5072575;28;20176;-70
2023/06/21 06:59:05;;;;;;;0.00;0.00;;;21.70;99.90;;;;;;5072053;28;20169;-70
2023/06/21 07:01:30;;;;;;;0.00;0.00;;;21.80;99.90;;;;;;5072508;28;20207;-70
2023/06/21 07:03:56;;;;;;;0.00;0.00;;;22.10;99.90;;;;;;5072398;28;20188;-70
2023/06/21 07:06:22;;;;;;;0.00;0.00;;;22.20;99.90;;;;;;5072473;28;20176;-71
2023/06/21 07:08:47;;;;;;;0.10;0.10;;;22.20;99.90;;;;;;5071151;28;20246;-71
2023/06/21 07:11:13;;;;;;;0.00;0.00;;;22.30;99.90;;;;;;5072267;28;20204;-70
2023/06/21 07:13:39;;;;;;;0.00;0.00;;;22.40;99.90;;;;;;5072253;28;20177;-70
2023/06/21 07:16:05;;;;;;;0.00;0.00;;;22.40;99.90;;;;;;5072479;28;20169;-70
2023/06/21 07:18:30;;;;;;;0.03;0.03;;;22.50;99.90;;;;;;5070710;28;20180;-70
2023/06/21 07:20:56;;;;;;;0.00;0.00;;;22.50;99.90;;;;;;5072256;28;20188;-71
2023/06/21 07:23:21;;;;;;;0.00;0.00;;;22.80;99.90;;;;;;5072093;28;20561;-70
2023/06/21 07:25:47;;;;;;;0.00;0.00;;;23.20;99.90;;;;;;5071988;28;20595;-70
2023/06/21 07:28:12;;;;;;;0.00;0.00;;;23.80;99.90;;;;;;5072047;28;20303;-71
2023/06/21 07:30:38;;;;;;;0.00;0.00;;;24.60;99.90;;;;;;5071796;28;20181;-70
2023/06/21 07:33:06;;;;;;;0.00;0.00;;;25.30;99.90;;;;;;5072143;28;20179;-71
2023/06/21 07:35:31;;;;;;;0.00;0.00;;;25.40;99.90;;;;;;5071837;28;20173;-70
2023/06/21 07:37:57;;;;;;;0.00;0.00;;;25.50;99.90;;;;;;5071887;28;20605;-70
2023/06/21 07:40:23;;;;;;;0.00;0.00;;;25.80;99.90;;;;;;5071900;28;20222;-70
2023/06/21 07:42:49;;;;;;;0.00;0.00;;;26.50;99.90;;;;;;5071550;28;20176;-70
2023/06/21 07:45:15;;;;;;;0.00;0.00;;;27.20;99.90;;;;;;5071841;28;20242;-70
2023/06/21 07:47:41;;;;;;;0.00;0.00;;;27.40;99.90;;;;;;5070502;28;20533;-71
2023/06/21 07:50:07;;;;;;;0.10;0.10;;;27.30;99.90;;;;;;5071863;28;20275;-71
2023/06/21 07:52:33;;;;;;;0.00;0.00;;;27.10;99.90;;;;;;5071621;28;20256;-71
2023/06/21 07:54:59;;;;;;;0.00;0.00;;;26.60;99.90;;;;;;5070518;28;20234;-71
2023/06/21 07:57:24;;;;;;;0.00;0.00;;;26.30;99.90;;;;;;5071810;28;20329;-71
2023/06/21 07:59:50;;;;;;;0.00;0.00;;;26.20;99.90;;;;;;5071072;28;20173;-70
2023/06/21 08:02:18;;;;;;;0.03;0.03;;;26.00;99.90;;;;;;5071636;28;20626;-71
2023/06/21 08:04:44;;;;;;;0.00;0.00;;;25.80;99.90;;;;;;5071478;28;20544;-71
2023/06/21 08:07:10;;;;;;;0.00;0.00;;;25.50;99.90;;;;;;5071278;28;20524;-71
2023/06/21 08:09:36;;;;;;;0.00;0.00;;;25.40;99.90;;;;;;5071518;28;20184;-71
2023/06/21 08:12:01;;;;;;;0.00;0.00;;;25.30;99.90;;;;;;5070308;28;20242;-71
2023/06/21 08:14:27;;;;;;;0.03;0.03;;;25.50;99.90;;;;;;5071383;28;20655;-71
2023/06/21 08:16:53;;;;;;;0.00;0.00;;;25.70;99.90;;;;;;5071454;28;20648;-71
2023/06/21 08:19:18;;;;;;;0.00;0.00;;;25.70;99.90;;;;;;5071150;28;20184;-71
2023/06/21 08:21:44;;;;;;;0.00;0.00;;;25.60;99.90;;;;;;5071206;28;20212;-71
2023/06/21 08:24:10;;;;;;;0.00;0.00;;;25.70;99.90;;;;;;5071322;28;20181;-71
2023/06/21 08:26:36;;;;;;;0.60;0.57;;;25.50;99.90;;;;;;5071250;28;20180;-71
2023/06/21 08:29:01;;;;;;;0.00;0.00;;;25.20;99.90;;;;;;5071413;28;20177;-71
2023/06/21 08:31:27;;;;;;;0.00;0.00;;;24.80;99.90;;;;;;5071264;28;20233;-71
2023/06/21 08:33:52;;;;;;;0.00;0.00;;;24.70;99.90;;;;;;5071403;28;20529;-71
2023/06/21 08:36:18;;;;;;;0.00;0.00;;;24.70;99.90;;;;;;5071301;28;20181;-71
2023/06/21 08:38:45;;;;;;;0.00;0.00;;;24.70;99.90;;;;;;5071156;28;20172;-71
2023/06/21 08:41:11;;;;;;;0.00;0.00;;;24.60;99.90;;;;;;5053465;28;20180;-71
2023/06/21 08:43:37;;;;;;;0.00;0.00;;;24.50;99.90;;;;;;5071048;28;20204;-70
2023/06/21 08:46:06;;;;;;;0.00;0.00;;;24.20;99.90;;;;;;5071352;28;20636;-70
2023/06/21 08:48:32;;;;;;;0.00;0.00;;;24.00;99.90;;;;;;5071034;28;20180;-70
2023/06/21 08:51:04;;;;;;;0.00;0.00;;;23.80;99.90;;;;;;5070803;28;20204;-70
2023/06/21 08:53:39;;;;;;;0.00;0.00;;;23.80;99.90;;;;;;5070813;28;20192;-70
2023/06/21 08:56:06;;;;;;;0.00;0.00;;;23.80;99.90;;;;;;5071300;28;20628;-70
2023/06/21 08:58:49;;;;;;;0.20;0.20;;;23.70;99.90;;;;;;5070969;28;20204;-70
2023/06/21 09:01:18;;;;;;;0.00;0.00;;;23.60;99.90;;;;;;5071165;28;20678;-70
2023/06/21 09:03:57;;;;;;;0.00;0.00;;;23.60;99.90;;;;;;5070914;28;20589;-70
2023/06/21 09:06:24;;;;;;;0.00;0.00;;;23.50;99.90;;;;;;5071101;28;20172;-69
2023/06/21 09:08:54;;;;;;;0.00;0.00;;;23.60;99.90;;;;;;5070724;28;20267;-70
2023/06/21 09:11:23;;;;;;;0.00;0.00;;;23.60;99.90;;;;;;5070835;28;20244;-70
2023/06/21 09:13:50;;;;;;;0.00;0.00;;;23.70;99.90;;;;;;5070805;28;20255;-71
2023/06/21 09:16:16;;;;;;;0.10;0.10;;;23.90;99.90;;;;;;5070996;28;20222;-70
2023/06/21 09:18:43;;;;;;;0.00;0.00;;;24.10;99.90;;;;;;5073246;28;20172;-71
2023/06/21 09:21:10;;;;;;;0.00;0.00;;;24.20;99.90;;;;;;5074323;28;20173;-70
2023/06/21 09:23:36;;;;;;;0.00;0.00;;;24.40;99.90;;;;;;5074451;28;20196;-70
2023/06/21 09:26:02;;;;;;;0.10;0.10;;;24.60;99.90;;;;;;5073192;28;20175;-70
2023/06/21 09:28:29;;;;;;;0.00;0.00;;;24.80;99.90;;;;;;5072975;28;20341;-69
2023/06/21 09:30:54;;;;;;;0.00;0.00;;;24.80;99.90;;;;;;5074357;28;20246;-70
2023/06/21 09:33:20;;;;;;;0.00;0.00;;;24.70;99.90;;;;;;5074225;28;20855;-71
2023/06/21 09:35:46;;;;;;;0.00;0.00;;;24.50;99.90;;;;;;5074181;28;20502;-70
2023/06/21 09:38:26;;;;;;;0.00;0.00;;;24.50;99.90;;;;;;5074172;28;20179;-71
2023/06/21 09:40:52;;;;;;;0.00;0.00;;;24.50;99.90;;;;;;5073912;28;20177;-70
2023/06/21 09:43:20;;;;;;;0.00;0.00;;;24.40;99.90;;;;;;5073920;28;20195;-70
2023/06/21 09:45:59;;;;;;;0.00;0.00;;;24.30;99.90;;;;;;5073876;28;20191;-70
2023/06/21 09:48:25;;;;;;;0.00;0.00;;;24.30;99.90;;;;;;5074003;28;20172;-70
2023/06/21 09:50:53;;;;;;;0.20;0.20;;;24.20;99.90;;;;;;5072380;28;20212;-70
2023/06/21 09:53:24;;;;;;;0.00;0.00;;;24.10;99.90;;;;;;5073993;28;20549;-71
2023/06/21 09:55:50;;;;;;;0.00;0.00;;;24.10;99.90;;;;;;5073746;28;20169;-71
2023/06/21 09:58:15;;;;;;;0.00;0.00;;;24.10;99.90;;;;;;5073923;28;20191;-71
2023/06/21 10:00:42;;;;;;;0.00;0.00;;;24.10;99.90;;;;;;5073720;28;20184;-71
2023/06/21 10:03:08;;;;;;;0.00;0.00;;;24.00;99.90;;;;;;5073612;28;20169;-71
2023/06/21 10:05:34;;;;;;;0.00;0.00;;;24.00;99.90;;;;;;5073508;28;20663;-71
2023/06/21 10:08:03;;;;;;;0.00;0.00;;;23.70;99.90;;;;;;5073694;28;20203;-71
2023/06/21 10:10:32;;;;;;;0.00;0.00;;;23.60;99.90;;;;;;5073564;28;20188;-70
2023/06/21 10:12:58;;;;;;;0.00;0.00;;;23.40;99.90;;;;;;5073567;28;20197;-71
2023/06/21 10:15:23;;;;;;;0.00;0.00;;;23.40;99.90;;;;;;5073581;28;20242;-71
2023/06/21 10:17:49;;;;;;;0.00;0.00;;;23.30;99.90;;;;;;5073227;28;20263;-71
2023/06/21 10:20:15;;;;;;;0.00;0.00;;;23.30;99.90;;;;;;5055458;28;20663;-71
2023/06/21 10:22:51;;;;;;;0.80;0.47;;;23.20;99.90;;;;;;5073253;28;20177;-71
2023/06/21 10:25:19;;;;;;;0.00;0.00;;;23.20;99.90;;;;;;5073248;28;20582;-71
2023/06/21 10:27:46;;;;;;;0.00;0.00;;;23.10;99.90;;;;;;5072885;28;20220;-70
2023/06/21 10:30:13;;;;;;;0.00;0.00;;;23.00;99.90;;;;;;5072148;28;20640;-71
2023/06/21 10:32:39;;;;;;;0.00;0.00;;;23.00;99.90;;;;;;5072964;28;20209;-71
2023/06/21 10:35:26;;;;;;;0.00;0.00;;;22.90;99.90;;;;;;5073114;28;20172;-71
2023/06/21 10:38:14;;;;;;;0.00;0.00;;;23.00;99.90;;;;;;5072755;28;20193;-71
2023/06/21 10:40:40;;;;;;;0.08;0.08;;;23.00;99.90;;;;;;5072965;28;20165;-71
2023/06/21 10:43:07;;;;;;;0.00;0.00;;;23.00;99.90;;;;;;5067484;28;20188;-70
2023/06/21 10:45:33;;;;;;;0.00;0.00;;;23.10;99.90;;;;;;5053039;28;20243;-70
2023/06/21 10:48:00;;;;;;;0.00;0.00;;;23.30;99.90;;;;;;5052880;28;20264;-70
2023/06/21 10:50:26;;;;;;;0.00;0.00;;;23.30;99.90;;;;;;5052796;28;20177;-70
2023/06/21 10:52:57;;;;;;;0.00;0.00;;;23.20;99.90;;;;;;5052789;28;20209;-70
2023/06/21 10:55:22;;;;;;;0.10;0.10;;;23.20;99.90;;;;;;5052675;28;20174;-70
2023/06/21 10:57:53;;;;;;;0.00;0.00;;;23.30;99.90;;;;;;5052258;28;20188;-70
2023/06/21 11:00:21;;;;;;;0.03;0.03;;;23.30;99.90;;;;;;5052637;28;20256;-70
2023/06/21 11:02:46;;;;;;;0.00;0.00;;;23.50;99.90;;;;;;5067643;28;20176;-70
2023/06/21 11:05:15;;;;;;;0.00;0.00;;;23.70;99.90;;;;;;5052537;28;20170;-70
2023/06/21 11:08:06;;;;;;;0.43;0.35;;;23.80;99.90;;;;;;5052366;28;20203;-70
2023/06/21 11:10:49;;;;;;;0.00;0.00;;;24.00;99.90;;;;;;5052278;28;20173;-70
2023/06/21 11:13:15;;;;;;;0.00;0.00;;;24.10;99.90;;;;;;5052580;28;20178;-70
2023/06/21 11:15:44;;;;;;;0.00;0.00;;;24.10;99.90;;;;;;5052386;28;20181;-70
2023/06/21 11:18:18;;;;;;;0.00;0.00;;;24.10;99.90;;;;;;5056129;28;20683;-70
2023/06/21 11:20:48;;;;;;;0.00;0.00;;;24.10;99.90;;;;;;5072133;28;20189;-70
2023/06/21 11:23:25;;;;;;;0.00;0.00;;;24.30;99.90;;;;;;5072142;28;20179;-70
2023/06/21 11:26:12;;;;;;;0.00;0.00;;;24.40;99.90;;;;;;5071728;28;20169;-70
2023/06/21 11:28:42;;;;;;;0.00;0.00;;;24.60;99.90;;;;;;5071958;28;20815;-70
2023/06/21 11:31:09;;;;;;;0.00;0.00;;;24.80;99.90;;;;;;5072171;28;20209;-70
2023/06/21 11:33:51;;;;;;;0.00;0.00;;;25.00;99.90;;;;;;5072183;28;20181;-69
2023/06/21 11:36:21;;;;;;;0.00;0.00;;;25.10;99.90;;;;;;5072103;28;20164;-70
2023/06/21 11:39:18;;;;;;;0.00;0.00;;;25.20;99.90;;;;;;5071824;28;20177;-69
2023/06/21 11:41:43;;;;;;;0.00;0.00;;;25.50;99.90;;;;;;5069782;28;20176;-70
2023/06/21 11:44:24;;;;;;;0.15;0.15;;;25.70;99.90;;;;;;5071598;28;20184;-69
2023/06/21 11:46:50;;;;;;;0.00;0.00;;;25.90;99.90;;;;;;5071564;28;20215;-68
2023/06/21 11:49:17;;;;;;;0.00;0.00;;;26.10;99.90;;;;;;5071704;28;20204;-69
2023/06/21 11:52:02;;;;;;;0.00;0.00;;;26.40;99.90;;;;;;5071475;28;20629;-70
2023/06/21 11:54:32;;;;;;;0.00;0.00;;;26.80;99.90;;;;;;5071377;28;20210;-69
2023/06/21 11:56:58;;;;;;;0.00;0.00;;;27.30;99.90;;;;;;5071729;28;20648;-69
2023/06/21 11:59:25;;;;;;;0.00;0.00;;;27.70;99.90;;;;;;5071586;28;20191;-69
2023/06/21 12:01:51;;;;;;;0.00;0.00;;;28.20;99.90;;;;;;5071375;28;20184;-69
2023/06/21 12:04:27;;;;;;;0.00;0.00;;;28.60;99.90;;;;;;5071711;28;20180;-70
2023/06/21 12:06:55;;;;;;;0.10;0.10;;;28.80;99.90;;;;;;5071526;28;20180;-69
2023/06/21 12:09:22;;;;;;;0.05;0.05;;;28.90;99.10;;;;;;5071326;28;20181;-69
2023/06/21 12:11:47;;;;;;;0.00;0.00;;;29.20;98.40;;;;;;5070215;28;20706;-68
2023/06/21 12:14:14;;;;;;;0.00;0.00;;;29.40;98.70;;;;;;5079749;28;20185;-70
2023/06/21 12:16:41;;;;;;;0.00;0.00;;;29.70;97.50;;;;;;5071499;28;20199;-69
2023/06/21 12:19:10;;;;;;;0.10;0.10;;;29.80;96.90;;;;;;5071040;28;20179;-70
2023/06/21 12:21:36;;;;;;;0.10;0.10;;;30.00;96.30;;;;;;5072494;28;20640;-69
2023/06/21 12:24:02;;;;;;;0.00;0.00;;;30.20;94.50;;;;;;5071425;28;20165;-69
2023/06/21 12:26:27;;;;;;;0.00;0.00;;;30.00;94.30;;;;;;5069844;28;20195;-65
2023/06/21 12:28:53;;;;;;;0.00;0.00;;;29.90;95.20;;;;;;5070188;28;20591;-66
2023/06/21 12:31:20;;;;;;;0.13;0.10;;;29.80;94.40;;;;;;5070875;28;20212;-68
2023/06/21 12:33:45;;;;;;;0.00;0.00;;;30.00;93.90;;;;;;5070419;28;20169;-64
2023/06/21 12:36:23;;;;;;;0.00;0.00;;;30.20;95.00;;;;;;5070809;28;20184;-66
2023/06/21 12:38:56;;;;;;;0.00;0.00;;;30.50;92.90;;;;;;5070460;28;20184;-69
2023/06/21 12:41:27;;;;;;;0.00;0.00;;;30.50;89.40;;;;;;5070534;28;20181;-69
2023/06/21 12:44:05;;;;;;;0.00;0.00;;;30.60;90.30;;;;;;5058682;28;20189;-69
2023/06/21 12:46:39;;;;;;;0.00;0.00;;;30.60;90.50;;;;;;5050705;28;20212;-69
2023/06/21 12:49:04;;;;;;;0.00;0.00;;;30.70;91.20;;;;;;5067163;28;20231;-69
2023/06/21 12:51:33;;;;;;;0.00;0.00;;;30.70;91.80;;;;;;5050515;28;20676;-69